1°C
Woerden, The Nederlands
Taal:  Nederlands
Updated16/12/2018 09:20 
 
Station Historical Data
 
Daily Summary for December 16, 2018 Units:  Metric    English   Both
Next Day »
Daily Weekly Monthly Yearly Custom
  Current: High: Low: Average:
Temperature: 0.7 °C 0.7 °C -1.3 °C -0.3 °C
Dew Point: -0.8 °C -0.8 °C -3.1 °C -1.9 °C
Humidity: 90% 90% 88% 89%
Wind Speed: 11.1km/h 33.3km/h 7.4km/h 21.5km/h
Wind Gust: 7.9km/h 24.1km/h - -
WindSSE - - SSE
Pressure: 1008.1 hPa 1011.0 hPa 1007.3 hPa -
Precipitation: 0.0 mm      
Historical Graphs
 
 
Tabular Data for December 16, 2018
Time Temperature Dew Point Pressure Wind Wind Speed Wind Gust Humidity Rainfall Rate (Hourly) solar Conditions
00:04 -1.2 °C -2.9 °C 1011.0 hPa ESE 29.6 km/h 21.6 km/h 88% 0.0 mm 0.00 W/m2 CLR
00:09 -1.3 °C -3.0 °C 1010.8 hPa SSE 31.5 km/h 23.2 km/h 88% 0.0 mm 0.00 W/m2 CLR
00:14 -1.3 °C -3.1 °C 1010.8 hPa SE 27.8 km/h 21.4 km/h 88% 0.0 mm 0.00 W/m2 CLR
00:19 -1.3 °C -2.9 °C 1010.6 hPa SE 25.9 km/h 22.4 km/h 89% 0.0 mm 0.00 W/m2 CLR
00:24 -1.3 °C -2.9 °C 1010.4 hPa ESE 31.5 km/h 20.1 km/h 89% 0.0 mm 0.00 W/m2 CLR
00:29 -1.3 °C -2.8 °C 1010.3 hPa SSE 25.9 km/h 19.5 km/h 89% 0.0 mm 0.00 W/m2 CLR
00:34 -1.2 °C -2.8 °C 1010.2 hPa SE 24.1 km/h 19.0 km/h 89% 0.0 mm 0.00 W/m2 CLR
00:39 -1.1 °C -2.7 °C 1010.1 hPa SE 27.8 km/h 21.1 km/h 89% 0.0 mm 0.00 W/m2 CLR
00:44 -1.1 °C -2.7 °C 1010.0 hPa SE 32.2 km/h 21.2 km/h 89% 0.0 mm 0.00 W/m2 CLR
00:49 -1.1 °C -2.6 °C 1010.0 hPa ESE 29.6 km/h 23.5 km/h 89% 0.0 mm 0.00 W/m2 CLR
00:54 -1.1 °C -2.6 °C 1009.9 hPa SE 32.2 km/h 24.1 km/h 89% 0.0 mm 0.00 W/m2 CLR
00:59 -1.1 °C -2.6 °C 1009.7 hPa SE 29.6 km/h 20.1 km/h 89% 0.0 mm 0.00 W/m2 CLR
01:04 -1.1 °C -2.6 °C 1009.6 hPa ESE 29.6 km/h 21.9 km/h 89% 0.0 mm 0.00 W/m2 CLR
01:09 -1.0 °C -2.6 °C 1009.5 hPa SE 31.5 km/h 21.7 km/h 89% 0.0 mm 0.00 W/m2 CLR
01:14 -1.0 °C -2.6 °C 1009.3 hPa SE 29.6 km/h 22.7 km/h 89% 0.0 mm 0.00 W/m2 CLR
01:19 -0.9 °C -2.5 °C 1009.2 hPa SSE 31.5 km/h 22.8 km/h 89% 0.0 mm 0.00 W/m2 CLR
01:24 -0.8 °C -2.4 °C 1009.3 hPa SE 27.8 km/h 20.0 km/h 89% 0.0 mm 0.00 W/m2 CLR
01:29 -0.8 °C -2.4 °C 1009.5 hPa SE 25.9 km/h 18.7 km/h 89% 0.0 mm 0.00 W/m2 CLR
01:34 -0.7 °C -2.3 °C 1009.7 hPa SE 27.8 km/h 22.2 km/h 89% 0.0 mm 0.00 W/m2 CLR
01:39 -0.7 °C -2.3 °C 1009.7 hPa SE 31.5 km/h 20.6 km/h 89% 0.0 mm 0.00 W/m2 CLR
01:44 -0.7 °C -2.3 °C 1009.7 hPa SE 33.3 km/h 21.9 km/h 89% 0.0 mm 0.00 W/m2 CLR
01:49 -0.7 °C -2.3 °C 1009.6 hPa SE 24.1 km/h 19.6 km/h 89% 0.0 mm 0.00 W/m2 CLR
01:54 -0.7 °C -2.3 °C 1009.4 hPa SE 25.9 km/h 20.3 km/h 89% 0.0 mm 0.00 W/m2 CLR
01:59 -0.7 °C -2.3 °C 1009.6 hPa SE 31.5 km/h 21.6 km/h 89% 0.0 mm 0.00 W/m2 CLR
02:04 -0.7 °C -2.3 °C 1009.6 hPa SE 29.6 km/h 20.0 km/h 89% 0.0 mm 0.00 W/m2 CLR
02:09 -0.7 °C -2.3 °C 1009.5 hPa SE 29.6 km/h 21.9 km/h 89% 0.0 mm 0.00 W/m2 CLR
02:14 -0.7 °C -2.3 °C 1009.5 hPa SE 25.9 km/h 18.2 km/h 89% 0.0 mm 0.00 W/m2 CLR
02:19 -0.7 °C -2.3 °C 1009.4 hPa SE 31.5 km/h 21.9 km/h 89% 0.0 mm 0.00 W/m2 CLR
02:24 -0.7 °C -2.3 °C 1009.2 hPa SSE 25.9 km/h 19.8 km/h 89% 0.0 mm 0.00 W/m2 CLR
02:29 -0.7 °C -2.3 °C 1009.3 hPa SE 24.1 km/h 17.5 km/h 89% 0.0 mm 0.00 W/m2 CLR
02:34 -0.7 °C -2.3 °C 1009.3 hPa SE 27.8 km/h 19.6 km/h 89% 0.0 mm 0.00 W/m2 CLR
02:39 -0.6 °C -2.2 °C 1009.2 hPa SE 24.1 km/h 21.2 km/h 89% 0.0 mm 0.00 W/m2 CLR
02:44 -0.7 °C -2.3 °C 1009.1 hPa SSE 31.5 km/h 19.5 km/h 89% 0.0 mm 0.00 W/m2 CLR
02:49 -0.6 °C -2.2 °C 1009.1 hPa SSE 25.9 km/h 18.7 km/h 89% 0.0 mm 0.00 W/m2 CLR
02:54 -0.6 °C -2.2 °C 1009.0 hPa SE 29.6 km/h 21.6 km/h 89% 0.0 mm 0.00 W/m2 CLR
02:59 -0.6 °C -2.2 °C 1008.9 hPa SE 25.9 km/h 20.1 km/h 89% 0.0 mm 0.00 W/m2 CLR
03:04 -0.7 °C -2.3 °C 1008.9 hPa SE 31.5 km/h 20.4 km/h 89% 0.0 mm 0.00 W/m2 CLR
03:09 -0.6 °C -2.2 °C 1009.0 hPa SSE 25.7 km/h 18.5 km/h 89% 0.0 mm 0.00 W/m2 CLR
03:14 -0.7 °C -2.3 °C 1008.9 hPa SE 29.6 km/h 18.8 km/h 89% 0.0 mm 0.00 W/m2 CLR
03:19 -0.7 °C -2.1 °C 1008.8 hPa SSE 27.8 km/h 18.5 km/h 90% 0.0 mm 0.00 W/m2 CLR
03:24 -0.7 °C -2.1 °C 1008.7 hPa SE 24.1 km/h 18.3 km/h 90% 0.0 mm 0.00 W/m2 CLR
03:29 -0.7 °C -2.1 °C 1008.6 hPa SSE 25.9 km/h 19.5 km/h 90% 0.0 mm 0.00 W/m2 CLR
03:34 -0.6 °C -2.1 °C 1008.6 hPa ESE 24.1 km/h 21.1 km/h 90% 0.0 mm 0.00 W/m2 CLR
03:39 -0.6 °C -2.2 °C 1008.5 hPa SSE 27.8 km/h 21.1 km/h 89% 0.0 mm 0.00 W/m2 CLR
03:44 -0.6 °C -2.2 °C 1008.4 hPa South 24.1 km/h 19.1 km/h 89% 0.0 mm 0.00 W/m2 CLR
03:49 -0.6 °C -2.2 °C 1008.5 hPa SE 24.1 km/h 17.7 km/h 89% 0.0 mm 0.00 W/m2 CLR
03:54 -0.5 °C -2.1 °C 1008.4 hPa SE 24.1 km/h 17.5 km/h 89% 0.0 mm 0.00 W/m2 CLR
03:59 -0.5 °C -2.1 °C 1008.3 hPa SSE 24.1 km/h 19.8 km/h 89% 0.0 mm 0.00 W/m2 CLR
04:04 -0.4 °C -2.1 °C 1008.2 hPa SE 27.8 km/h 20.4 km/h 89% 0.0 mm 0.00 W/m2 CLR
04:09 -0.4 °C -2.1 °C 1008.2 hPa SE 18.5 km/h 17.4 km/h 89% 0.0 mm 0.00 W/m2 CLR
04:14 -0.4 °C -1.8 °C 1008.2 hPa SSE 25.9 km/h 16.7 km/h 90% 0.0 mm 0.00 W/m2 CLR
04:19 -0.3 °C -1.8 °C 1008.1 hPa SE 22.2 km/h 18.0 km/h 90% 0.0 mm 0.00 W/m2 CLR
04:24 -0.3 °C -1.9 °C 1008.1 hPa SE 20.9 km/h 18.2 km/h 89% 0.0 mm 0.00 W/m2 CLR
04:29 -0.3 °C -1.9 °C 1008.1 hPa SE 22.2 km/h 17.7 km/h 89% 0.0 mm 0.00 W/m2 CLR
04:34 -0.3 °C -1.9 °C 1008.1 hPa SSE 25.9 km/h 18.7 km/h 89% 0.0 mm 0.00 W/m2 CLR
04:39 -0.3 °C -1.9 °C 1007.9 hPa SE 22.2 km/h 16.3 km/h 89% 0.0 mm 0.00 W/m2 CLR
04:44 -0.3 °C -1.9 °C 1007.9 hPa SSE 22.5 km/h 16.7 km/h 89% 0.0 mm 0.00 W/m2 CLR
04:49 -0.3 °C -1.9 °C 1008.0 hPa SE 22.2 km/h 16.1 km/h 89% 0.0 mm 0.00 W/m2 CLR
04:54 -0.3 °C -1.9 °C 1008.0 hPa SSE 20.4 km/h 14.5 km/h 89% 0.0 mm 0.00 W/m2 CLR
04:59 -0.3 °C -1.9 °C 1008.0 hPa SE 20.4 km/h 18.7 km/h 89% 0.0 mm 0.00 W/m2 CLR
05:04 -0.2 °C -1.8 °C 1008.0 hPa SE 14.8 km/h 10.3 km/h 89% 0.0 mm 0.00 W/m2 CLR
05:09 -0.2 °C -1.8 °C 1008.1 hPa SSE 22.2 km/h 14.8 km/h 89% 0.0 mm 0.00 W/m2 CLR
05:14 -0.2 °C -1.8 °C 1008.1 hPa SSE 20.4 km/h 13.7 km/h 89% 0.0 mm 0.00 W/m2 CLR
05:19 -0.2 °C -1.8 °C 1007.9 hPa SE 20.4 km/h 17.1 km/h 89% 0.0 mm 0.00 W/m2 CLR
05:24 -0.2 °C -1.8 °C 1007.9 hPa SE 16.7 km/h 11.1 km/h 89% 0.0 mm 0.00 W/m2 CLR
05:29 -0.2 °C -1.8 °C 1008.0 hPa SE 16.7 km/h 11.7 km/h 89% 0.0 mm 0.00 W/m2 CLR
05:34 -0.2 °C -1.8 °C 1007.9 hPa SE 24.1 km/h 14.2 km/h 89% 0.0 mm 0.00 W/m2 CLR
05:39 -0.2 °C -1.8 °C 1008.0 hPa SE 20.4 km/h 13.0 km/h 89% 0.0 mm 0.00 W/m2 CLR
05:44 -0.2 °C -1.8 °C 1008.0 hPa SE 18.5 km/h 12.9 km/h 89% 0.0 mm 0.00 W/m2 CLR
05:49 -0.1 °C -1.7 °C 1007.9 hPa SSE 14.8 km/h 9.8 km/h 89% 0.0 mm 0.00 W/m2 CLR
05:54 -0.1 °C -1.7 °C 1007.8 hPa SSE 16.7 km/h 12.1 km/h 89% 0.0 mm 0.00 W/m2 CLR
05:59 -0.1 °C -1.7 °C 1007.9 hPa SSE 18.5 km/h 11.4 km/h 89% 0.0 mm 0.00 W/m2 CLR
06:04 -0.1 °C -1.7 °C 1007.8 hPa SSE 18.5 km/h 11.7 km/h 89% 0.0 mm 0.00 W/m2 CLR
06:09 -0.1 °C -1.7 °C 1007.8 hPa SE 16.7 km/h 13.2 km/h 89% 0.0 mm 0.00 W/m2 CLR
06:14 -0.1 °C -1.7 °C 1007.7 hPa SSE 18.5 km/h 13.8 km/h 89% 0.0 mm 0.00 W/m2 CLR
06:19 -0.1 °C -1.7 °C 1007.8 hPa SE 14.8 km/h 10.3 km/h 89% 0.0 mm 0.00 W/m2 CLR
06:24 0.0 °C -1.6 °C 1007.8 hPa SSE 14.8 km/h 9.0 km/h 89% 0.0 mm 0.00 W/m2 CLR
06:29 0.0 °C -1.6 °C 1007.8 hPa SSE 13.0 km/h 7.1 km/h 89% 0.0 mm 0.00 W/m2 CLR
06:34 0.1 °C -1.6 °C 1007.7 hPa SE 16.7 km/h 12.9 km/h 89% 0.0 mm 0.00 W/m2 CLR
06:39 0.1 °C -1.6 °C 1007.7 hPa SSE 16.7 km/h 10.6 km/h 89% 0.0 mm 0.00 W/m2 CLR
06:44 0.1 °C -1.6 °C 1007.7 hPa SE 16.1 km/h 12.1 km/h 89% 0.0 mm 0.00 W/m2 CLR
06:49 0.1 °C -1.6 °C 1007.4 hPa SSE 18.5 km/h 12.6 km/h 89% 0.0 mm 0.00 W/m2 CLR
06:54 0.1 °C -1.5 °C 1007.5 hPa SE 14.8 km/h 12.7 km/h 89% 0.0 mm 0.00 W/m2 CLR
06:59 0.2 °C -1.4 °C 1007.4 hPa SSE 18.5 km/h 12.6 km/h 89% 0.0 mm 0.00 W/m2 CLR
07:04 0.1 °C -1.5 °C 1007.3 hPa SSE 13.0 km/h 11.6 km/h 89% 0.0 mm 0.00 W/m2 CLR
07:09 0.2 °C -1.4 °C 1007.6 hPa SE 14.8 km/h 9.3 km/h 89% 0.0 mm 0.00 W/m2 CLR
07:14 0.2 °C -1.4 °C 1007.6 hPa SE 13.0 km/h 10.3 km/h 89% 0.0 mm 0.00 W/m2 CLR
07:19 0.2 °C -1.4 °C 1007.6 hPa SSE 14.8 km/h 9.7 km/h 89% 0.0 mm 0.00 W/m2 CLR
07:24 0.2 °C -1.4 °C 1007.4 hPa SSE 16.1 km/h 13.8 km/h 89% 0.0 mm 0.00 W/m2 CLR
07:29 0.2 °C -1.4 °C 1007.5 hPa SE 12.9 km/h 8.4 km/h 89% 0.0 mm 0.00 W/m2 CLR
07:34 0.2 °C -1.4 °C 1007.5 hPa SSE 14.8 km/h 10.9 km/h 89% 0.0 mm 0.00 W/m2 CLR
07:39 0.2 °C -1.4 °C 1007.4 hPa SSE 16.7 km/h 10.9 km/h 89% 0.0 mm 0.00 W/m2 CLR
07:44 0.2 °C -1.4 °C 1007.3 hPa SSE 18.5 km/h 11.7 km/h 89% 0.0 mm 0.00 W/m2 CLR
07:49 0.3 °C -1.3 °C 1007.3 hPa SSE 14.8 km/h 11.1 km/h 89% 0.0 mm 0.00 W/m2 CLR
07:54 0.3 °C -1.3 °C 1007.5 hPa SSE 16.7 km/h 10.8 km/h 89% 0.0 mm 0.00 W/m2 CLR
07:59 0.3 °C -1.3 °C 1007.5 hPa SSE 13.0 km/h 10.0 km/h 89% 0.0 mm 0.00 W/m2 CLR
08:04 0.3 °C -1.3 °C 1007.7 hPa SSE 13.0 km/h 10.0 km/h 89% 0.0 mm 0.00 W/m2 CLR
08:09 0.4 °C -1.2 °C 1007.7 hPa SSE 14.8 km/h 9.7 km/h 89% 0.0 mm 0.00 W/m2 CLR
08:14 0.4 °C -1.2 °C 1007.8 hPa SSE 14.5 km/h 11.4 km/h 89% 0.0 mm 0.00 W/m2 CLR
08:19 0.4 °C -1.2 °C 1007.6 hPa South 13.0 km/h 9.8 km/h 89% 0.0 mm 0.00 W/m2 CLR
08:24 0.4 °C -1.2 °C 1007.6 hPa SSE 11.1 km/h 10.1 km/h 89% 0.0 mm 0.00 W/m2 CLR
08:29 0.4 °C -1.2 °C 1007.7 hPa SSE 9.7 km/h 8.8 km/h 89% 0.0 mm 0.00 W/m2 CLR
08:34 0.4 °C -1.2 °C 1007.8 hPa SE 14.8 km/h 9.2 km/h 89% 0.0 mm 0.00 W/m2 CLR
08:39 0.4 °C -1.2 °C 1007.8 hPa SSE 14.8 km/h 7.4 km/h 89% 0.0 mm 0.00 W/m2 CLR
08:44 0.5 °C -1.1 °C 1007.9 hPa South 14.8 km/h 8.7 km/h 89% 0.0 mm 0.00 W/m2 OVC
08:49 0.5 °C -1.1 °C 1007.8 hPa SSE 12.9 km/h 9.3 km/h 89% 0.0 mm 0.00 W/m2 OVC
08:54 0.6 °C -1.1 °C 1007.8 hPa SSE 13.0 km/h 9.5 km/h 89% 0.0 mm 0.00 W/m2 OVC
08:59 0.6 °C -1.1 °C 1007.9 hPa SSE 11.1 km/h 7.6 km/h 89% 0.0 mm 5.00 W/m2 OVC
09:04 0.6 °C -1.1 °C 1007.8 hPa SSE 13.0 km/h 8.5 km/h 89% 0.0 mm 5.00 W/m2 OVC
09:09 0.6 °C -1.0 °C 1008.0 hPa SSE 7.4 km/h 6.9 km/h 89% 0.0 mm 5.00 W/m2 OVC
09:14 0.6 °C -1.0 °C 1008.0 hPa SSE 9.3 km/h 7.7 km/h 89% 0.0 mm 5.00 W/m2 OVC
09:19 0.7 °C -0.8 °C 1008.1 hPa SSE 11.1 km/h 7.9 km/h 90% 0.0 mm 5.00 W/m2 OVC
Juneau County Weather